createdAt,value
2022-12-09T00:01:40.845Z,8.63
2022-12-09T00:04:08.221Z,7.70
2022-12-09T00:06:35.701Z,8.40
2022-12-09T00:09:03.156Z,9.25
2022-12-09T00:11:30.742Z,7.97
2022-12-09T00:13:59.104Z,8.63
2022-12-09T00:16:26.866Z,8.00
2022-12-09T00:18:54.177Z,8.05
2022-12-09T00:21:24.626Z,7.80
2022-12-09T00:23:53.135Z,8.45
2022-12-09T00:26:21.244Z,8.00
2022-12-09T00:28:49.469Z,7.97
2022-12-09T00:31:18.172Z,8.70
2022-12-09T00:33:45.507Z,7.78
2022-12-09T00:36:14.592Z,8.75
2022-12-09T00:38:42.435Z,7.78
2022-12-09T00:41:10.051Z,8.65
2022-12-09T00:43:37.642Z,8.27
2022-12-09T00:46:05.488Z,7.38
2022-12-09T00:48:38.500Z,7.72
2022-12-09T00:51:06.804Z,8.10
2022-12-09T00:53:34.065Z,7.40
2022-12-09T00:56:01.770Z,8.85
2022-12-09T00:58:29.100Z,7.40
2022-12-09T01:00:56.790Z,7.38
2022-12-09T01:03:24.327Z,7.15
2022-12-09T01:05:51.728Z,7.38
2022-12-09T01:08:19.370Z,6.85
2022-12-09T01:10:46.884Z,7.47
2022-12-09T01:13:14.932Z,7.72
2022-12-09T01:15:42.631Z,6.28
2022-12-09T01:18:11.634Z,7.18
2022-12-09T01:20:39.376Z,6.75
2022-12-09T01:23:06.722Z,7.55
2022-12-09T01:25:34.203Z,6.90
2022-12-09T01:28:01.663Z,6.35
2022-12-09T01:30:28.981Z,7.35
2022-12-09T01:32:56.293Z,7.63
2022-12-09T01:35:23.726Z,7.18
2022-12-09T01:37:51.154Z,7.15
2022-12-09T01:40:19.693Z,7.03
2022-12-09T01:42:47.446Z,6.78
2022-12-09T01:45:23.573Z,7.05
2022-12-09T01:48:00.274Z,7.13
2022-12-09T01:50:28.208Z,6.85
2022-12-09T01:52:56.378Z,7.68
2022-12-09T01:55:24.033Z,6.78
2022-12-09T01:57:51.691Z,6.72
2022-12-09T02:00:19.251Z,7.03
2022-12-09T02:02:48.243Z,7.55
2022-12-09T02:05:17.067Z,7.00
2022-12-09T02:07:44.509Z,6.90
2022-12-09T02:10:14.623Z,6.18
2022-12-09T02:12:58.178Z,6.57
2022-12-09T02:15:28.309Z,6.43
2022-12-09T02:17:58.740Z,6.32
2022-12-09T02:20:25.982Z,7.00
2022-12-09T02:22:56.948Z,6.72
2022-12-09T02:25:27.116Z,6.53
2022-12-09T02:28:11.752Z,5.50
2022-12-09T02:30:46.021Z,5.97
2022-12-09T02:33:13.361Z,6.45
2022-12-09T02:35:47.402Z,5.07
2022-12-09T02:38:17.721Z,6.65
2022-12-09T02:41:01.393Z,5.95
2022-12-09T02:43:31.258Z,5.20
2022-12-09T02:45:59.819Z,7.30
2022-12-09T02:48:32.881Z,5.90
2022-12-09T02:51:03.012Z,6.10
2022-12-09T02:53:31.683Z,6.13
2022-12-09T02:55:59.439Z,5.28
2022-12-09T02:58:26.709Z,4.97
2022-12-09T03:00:55.725Z,6.22
2022-12-09T03:03:23.734Z,6.15
2022-12-09T03:06:08.451Z,6.68
2022-12-09T03:08:45.061Z,6.28
2022-12-09T03:11:13.704Z,5.90
2022-12-09T03:13:41.122Z,5.63
2022-12-09T03:16:12.461Z,6.05
2022-12-09T03:18:44.140Z,5.38
2022-12-09T03:21:12.593Z,6.67
2022-12-09T03:23:40.229Z,6.35
2022-12-09T03:26:07.737Z,5.55
2022-12-09T03:28:41.431Z,5.85
2022-12-09T03:31:11.150Z,6.32
2022-12-09T03:33:38.718Z,5.32
2022-12-09T03:36:07.061Z,6.05
2022-12-09T03:38:36.760Z,5.40
2022-12-09T03:41:11.416Z,5.43
2022-12-09T03:43:41.615Z,5.22
2022-12-09T03:46:09.076Z,5.15
2022-12-09T03:48:36.956Z,5.40
2022-12-09T03:51:11.150Z,6.20
2022-12-09T03:53:44.270Z,5.35
2022-12-09T03:56:15.313Z,5.65
2022-12-09T03:58:44.038Z,5.20
2022-12-09T04:01:11.479Z,6.88
2022-12-09T04:03:39.750Z,5.65
2022-12-09T04:06:07.506Z,4.75
2022-12-09T04:08:34.968Z,5.18
2022-12-09T04:11:02.302Z,5.00
2022-12-09T04:13:29.951Z,5.15
2022-12-09T04:15:57.466Z,5.03
2022-12-09T04:18:24.843Z,5.60
2022-12-09T04:20:52.388Z,5.68
2022-12-09T04:23:19.698Z,6.25
2022-12-09T04:25:46.940Z,5.13
2022-12-09T04:28:14.594Z,4.97
2022-12-09T04:30:46.303Z,5.10
2022-12-09T04:33:13.933Z,4.80
2022-12-09T04:35:41.443Z,4.60
2022-12-09T04:38:08.981Z,4.93
2022-12-09T04:40:36.325Z,5.35
2022-12-09T04:43:03.881Z,6.25
2022-12-09T04:45:31.883Z,4.65
2022-12-09T04:47:59.622Z,6.85
2022-12-09T04:50:27.285Z,4.93
2022-12-09T04:52:54.588Z,6.45
2022-12-09T04:55:21.902Z,5.40
2022-12-09T04:57:49.345Z,6.03
2022-12-09T05:00:17.435Z,6.18
2022-12-09T05:02:44.872Z,6.18
2022-12-09T05:05:13.032Z,7.15
2022-12-09T05:07:40.716Z,6.03
2022-12-09T05:10:09.425Z,6.10
2022-12-09T05:12:37.195Z,6.63
2022-12-09T05:15:04.718Z,5.93
2022-12-09T05:17:32.518Z,5.13
2022-12-09T05:19:59.825Z,6.00
2022-12-09T05:22:27.249Z,5.72
2022-12-09T05:24:54.817Z,6.95
2022-12-09T05:27:22.413Z,6.82
2022-12-09T05:29:49.913Z,6.63
2022-12-09T05:32:17.506Z,6.80
2022-12-09T05:34:44.941Z,5.85
2022-12-09T05:37:18.292Z,6.07
2022-12-09T05:39:45.906Z,5.63
2022-12-09T05:42:13.356Z,6.20
2022-12-09T05:44:41.748Z,3.95
2022-12-09T05:47:09.345Z,7.15
2022-12-09T05:49:39.010Z,6.88
2022-12-09T05:52:06.851Z,6.00
2022-12-09T05:54:34.580Z,5.25
2022-12-09T05:57:04.390Z,6.32
2022-12-09T05:59:31.856Z,5.28
2022-12-09T06:02:01.372Z,6.82
2022-12-09T06:04:31.524Z,7.15
2022-12-09T06:06:59.411Z,7.60
2022-12-09T06:09:27.134Z,5.60
2022-12-09T06:11:55.781Z,5.65
2022-12-09T06:14:23.596Z,5.30
2022-12-09T06:16:51.143Z,6.63
2022-12-09T06:19:18.951Z,6.28
2022-12-09T06:21:46.668Z,5.03
2022-12-09T06:24:14.226Z,5.32
2022-12-09T06:26:41.788Z,6.15
2022-12-09T06:29:09.886Z,5.90
2022-12-09T06:31:38.643Z,6.32
2022-12-09T06:34:06.159Z,6.13
2022-12-09T06:36:33.878Z,6.38
2022-12-09T06:39:09.662Z,7.13
2022-12-09T06:41:37.965Z,5.57
2022-12-09T06:44:05.517Z,6.20
2022-12-09T06:46:33.083Z,7.95
2022-12-09T06:49:01.186Z,7.28
2022-12-09T06:51:29.446Z,8.98
2022-12-09T06:53:58.040Z,9.20
2022-12-09T06:56:25.613Z,9.02
2022-12-09T06:58:53.026Z,9.40
2022-12-09T07:01:24.869Z,8.80
2022-12-09T07:03:53.821Z,9.23
2022-12-09T07:06:21.930Z,10.02
2022-12-09T07:08:49.491Z,10.95
2022-12-09T07:11:16.899Z,8.30
2022-12-09T07:13:44.296Z,8.60
2022-12-09T07:16:11.935Z,10.13
2022-12-09T07:18:39.772Z,9.98
2022-12-09T07:21:08.148Z,9.25
2022-12-09T07:23:35.863Z,9.63
2022-12-09T07:26:05.623Z,8.98
2022-12-09T07:28:33.322Z,9.52
2022-12-09T07:31:00.882Z,9.10
2022-12-09T07:33:28.743Z,9.90
2022-12-09T07:35:56.985Z,16.05
2022-12-09T07:38:25.142Z,9.38
2022-12-09T07:40:52.861Z,10.68
2022-12-09T07:43:21.021Z,10.20
2022-12-09T07:45:49.424Z,9.80
2022-12-09T07:48:17.740Z,10.10
2022-12-09T07:50:45.360Z,10.52
2022-12-09T07:53:12.954Z,11.02
2022-12-09T07:55:40.717Z,10.15
2022-12-09T07:58:08.372Z,10.38
2022-12-09T08:00:35.927Z,11.90
2022-12-09T08:03:03.541Z,11.73
2022-12-09T08:05:31.106Z,11.57
2022-12-09T08:07:58.715Z,8.82
2022-12-09T08:10:26.317Z,11.93
2022-12-09T08:12:54.175Z,13.77
2022-12-09T08:15:21.584Z,11.43
2022-12-09T08:17:49.498Z,10.48
2022-12-09T08:20:17.321Z,10.48
2022-12-09T08:22:45.517Z,10.70
2022-12-09T08:25:13.441Z,11.25
2022-12-09T08:27:41.063Z,11.20
2022-12-09T08:30:09.299Z,13.07
2022-12-09T08:32:37.230Z,11.15
2022-12-09T08:35:06.514Z,13.80
2022-12-09T08:37:34.036Z,13.77
2022-12-09T08:40:01.534Z,15.07
2022-12-09T08:42:31.189Z,15.88
2022-12-09T08:45:02.037Z,14.80
2022-12-09T08:47:30.444Z,15.63
2022-12-09T08:49:58.465Z,14.65
2022-12-09T08:52:26.783Z,15.70
2022-12-09T08:54:54.274Z,12.10
2022-12-09T08:57:25.005Z,13.98
2022-12-09T08:59:52.544Z,13.20
2022-12-09T09:02:20.079Z,13.77
2022-12-09T09:04:47.995Z,13.75
2022-12-09T09:07:16.033Z,14.80
2022-12-09T09:09:44.043Z,11.73
2022-12-09T09:12:12.026Z,11.85
2022-12-09T09:14:39.721Z,12.27
2022-12-09T09:17:07.194Z,12.68
2022-12-09T09:19:35.257Z,12.20
2022-12-09T09:22:02.824Z,11.60
2022-12-09T09:24:30.930Z,14.10
2022-12-09T09:26:58.874Z,11.20
2022-12-09T09:29:26.311Z,11.52
2022-12-09T09:31:56.199Z,13.90
2022-12-09T09:34:25.124Z,14.00
2022-12-09T09:36:52.911Z,13.50
2022-12-09T09:39:20.853Z,16.63
2022-12-09T09:41:55.623Z,16.83
2022-12-09T09:44:26.548Z,15.55
2022-12-09T09:46:55.744Z,15.77
2022-12-09T09:49:37.497Z,18.48
2022-12-09T09:52:08.592Z,15.47
2022-12-09T09:54:36.447Z,16.33
2022-12-09T09:57:15.703Z,17.40
2022-12-09T09:59:50.181Z,19.73
2022-12-09T10:02:18.770Z,17.98
2022-12-09T10:04:55.774Z,17.45
2022-12-09T10:07:34.544Z,16.30
2022-12-09T10:10:03.138Z,16.55
2022-12-09T10:12:49.609Z,18.30
2022-12-09T10:15:20.554Z,16.10
2022-12-09T10:17:48.095Z,15.80
2022-12-09T10:20:18.561Z,14.65
2022-12-09T10:23:05.900Z,13.15
2022-12-09T10:25:35.646Z,13.82
2022-12-09T10:28:21.697Z,15.93
2022-12-09T10:30:51.011Z,15.27
2022-12-09T10:33:19.775Z,15.35
2022-12-09T10:35:47.788Z,14.25
2022-12-09T10:38:17.487Z,14.05
2022-12-09T10:40:55.107Z,16.30
2022-12-09T10:43:42.310Z,13.27
2022-12-09T10:46:20.373Z,13.60
2022-12-09T10:48:49.046Z,16.92
2022-12-09T10:51:31.164Z,17.33
2022-12-09T10:54:00.969Z,13.87
2022-12-09T10:56:30.132Z,17.02
2022-12-09T10:59:18.214Z,16.38
2022-12-09T11:01:49.842Z,14.13
2022-12-09T11:04:22.735Z,13.82
2022-12-09T11:06:55.636Z,13.75
2022-12-09T11:09:33.887Z,14.93
2022-12-09T11:12:02.646Z,11.95
2022-12-09T11:14:34.185Z,13.65
2022-12-09T11:17:12.918Z,14.45
2022-12-09T11:19:41.127Z,14.05
2022-12-09T11:22:15.228Z,14.23
2022-12-09T11:24:43.255Z,13.30
2022-12-09T11:27:28.218Z,14.00
2022-12-09T11:30:12.759Z,13.50
2022-12-09T11:32:56.462Z,11.25
2022-12-09T11:37:51.957Z,9.27
2022-12-09T11:40:19.288Z,12.95
2022-12-09T11:42:53.953Z,13.75
2022-12-09T11:45:41.442Z,13.18
2022-12-09T11:48:33.679Z,14.75
2022-12-09T11:51:02.774Z,12.50
2022-12-09T11:53:31.870Z,13.98
2022-12-09T11:56:13.090Z,11.75
2022-12-09T11:58:46.635Z,12.68
2022-12-09T12:01:16.609Z,13.15
2022-12-09T12:03:49.590Z,12.52
2022-12-09T12:06:20.433Z,12.77
2022-12-09T12:08:51.909Z,14.68
2022-12-09T12:11:21.794Z,14.68
2022-12-09T12:13:50.034Z,12.25
2022-12-09T12:16:26.550Z,12.90
2022-12-09T12:18:53.809Z,12.38
2022-12-09T12:21:56.745Z,13.75
2022-12-09T12:24:42.995Z,12.10
2022-12-09T12:27:10.296Z,13.20
2022-12-09T12:29:37.577Z,13.32
2022-12-09T12:32:07.729Z,11.50
2022-12-09T12:34:39.060Z,13.10
2022-12-09T12:37:09.441Z,13.88
2022-12-09T12:39:39.210Z,13.95
2022-12-09T12:42:26.776Z,13.00
2022-12-09T12:45:20.316Z,11.50
2022-12-09T12:47:54.200Z,10.98
2022-12-09T12:50:35.881Z,10.60
2022-12-09T12:53:18.295Z,10.50
2022-12-09T12:56:00.509Z,12.40
2022-12-09T12:58:33.720Z,12.88
2022-12-09T13:01:08.378Z,10.75
2022-12-09T13:03:54.471Z,10.80
2022-12-09T13:06:23.234Z,10.70
2022-12-09T13:08:58.308Z,11.73
2022-12-09T13:11:46.212Z,10.73
2022-12-09T13:14:18.762Z,10.82
2022-12-09T13:16:46.713Z,10.68
2022-12-09T13:19:22.310Z,10.70
2022-12-09T13:21:50.160Z,10.88
2022-12-09T13:24:44.079Z,9.00
2022-12-09T13:27:17.630Z,10.40
2022-12-09T13:29:48.899Z,10.25
2022-12-09T13:32:16.200Z,9.98
2022-12-09T13:34:50.004Z,11.32
2022-12-09T13:37:55.658Z,10.75
2022-12-09T13:40:27.697Z,12.05
2022-12-09T13:43:07.585Z,12.10
2022-12-09T13:45:37.183Z,9.70
2022-12-09T13:48:27.463Z,11.50
2022-12-09T13:50:57.305Z,10.43
2022-12-09T13:53:34.988Z,10.45
2022-12-09T13:56:04.176Z,10.13
2022-12-09T13:58:49.855Z,9.27
2022-12-09T14:01:20.398Z,11.20
2022-12-09T14:04:07.416Z,12.50
2022-12-09T14:06:41.029Z,10.88
2022-12-09T14:09:22.669Z,11.85
2022-12-09T14:11:51.125Z,11.23
2022-12-09T14:14:24.876Z,11.35
2022-12-09T14:16:52.114Z,12.43
2022-12-09T14:19:25.457Z,11.10
2022-12-09T14:22:18.069Z,11.73
2022-12-09T14:24:46.060Z,11.57
2022-12-09T14:27:14.332Z,11.80
2022-12-09T14:29:44.690Z,11.80
2022-12-09T14:32:25.811Z,13.48
2022-12-09T14:35:11.745Z,11.13
2022-12-09T14:37:40.095Z,13.50
2022-12-09T14:40:16.713Z,11.35
2022-12-09T14:43:02.942Z,12.15
2022-12-09T14:45:33.771Z,12.23
2022-12-09T14:48:02.451Z,11.80
2022-12-09T14:50:29.888Z,12.70
2022-12-09T14:53:02.516Z,11.95
2022-12-09T14:55:30.557Z,11.68
2022-12-09T14:58:00.706Z,10.90
2022-12-09T15:00:28.176Z,10.50
2022-12-09T15:03:30.973Z,11.60
2022-12-09T15:05:54.963Z,10.77
2022-12-09T15:08:48.351Z,11.80
2022-12-09T15:11:17.721Z,11.43
2022-12-09T15:13:47.306Z,10.27
2022-12-09T15:16:16.107Z,10.60
2022-12-09T15:18:44.927Z,12.40
2022-12-09T15:21:20.761Z,12.95
2022-12-09T15:23:48.119Z,12.70
2022-12-09T15:26:24.775Z,12.27
2022-12-09T15:28:53.315Z,14.85
2022-12-09T15:31:22.087Z,14.02
2022-12-09T15:33:50.766Z,14.73
2022-12-09T15:36:21.375Z,12.73
2022-12-09T15:38:51.587Z,13.45
2022-12-09T15:41:38.544Z,13.70
2022-12-09T15:44:12.015Z,12.73
2022-12-09T15:46:40.660Z,14.20
2022-12-09T15:49:09.154Z,14.52
2022-12-09T15:51:37.478Z,12.73
2022-12-09T15:54:10.457Z,14.50
2022-12-09T15:56:40.883Z,25.85
2022-12-09T15:59:13.415Z,23.98
2022-12-09T16:04:09.799Z,34.80
2022-12-09T16:06:38.157Z,47.63
2022-12-09T16:09:13.167Z,26.48
2022-12-09T16:11:44.561Z,22.27
2022-12-09T16:14:12.184Z,16.23
2022-12-09T16:16:50.448Z,13.63
2022-12-09T16:19:29.805Z,13.40
2022-12-09T16:22:05.506Z,13.85
2022-12-09T16:25:06.297Z,14.48
2022-12-09T16:27:22.800Z,16.13
2022-12-09T16:29:52.104Z,17.52
2022-12-09T16:32:19.421Z,15.55
2022-12-09T16:34:48.160Z,14.43
2022-12-09T16:37:27.824Z,16.17
2022-12-09T16:39:55.660Z,16.50
2022-12-09T16:42:24.473Z,15.65
2022-12-09T16:44:51.804Z,16.15
2022-12-09T16:47:24.192Z,16.85
2022-12-09T16:49:51.702Z,17.83
2022-12-09T16:52:22.355Z,17.85
2022-12-09T16:54:50.403Z,16.63
2022-12-09T16:57:18.486Z,17.63
2022-12-09T16:59:46.626Z,19.05
2022-12-09T17:02:23.955Z,18.52
2022-12-09T17:04:51.884Z,19.15
2022-12-09T17:07:19.250Z,18.73
2022-12-09T17:09:46.477Z,18.60
2022-12-09T17:12:13.800Z,19.13
2022-12-09T17:14:42.516Z,18.05
2022-12-09T17:17:09.775Z,18.38
2022-12-09T17:19:37.144Z,18.33
2022-12-09T17:22:04.471Z,18.17
2022-12-09T17:24:31.789Z,18.35
2022-12-09T17:26:59.094Z,16.15
2022-12-09T17:29:26.396Z,18.30
2022-12-09T17:31:53.670Z,16.42
2022-12-09T17:34:21.038Z,18.85
2022-12-09T17:36:48.473Z,18.05
2022-12-09T17:39:16.196Z,18.83
2022-12-09T17:41:44.210Z,19.73
2022-12-09T17:44:11.626Z,18.33
2022-12-09T17:46:38.858Z,20.88
2022-12-09T17:49:06.090Z,20.88
2022-12-09T17:51:36.232Z,19.33
2022-12-09T17:54:03.828Z,17.00
2022-12-09T17:56:31.175Z,19.00
2022-12-09T17:59:00.850Z,18.65
2022-12-09T18:01:28.288Z,15.38
2022-12-09T18:04:04.692Z,15.35
2022-12-09T18:06:35.336Z,15.55
2022-12-09T18:09:03.542Z,16.73
2022-12-09T18:11:32.437Z,15.73
2022-12-09T18:13:59.897Z,15.05
2022-12-09T18:16:27.263Z,14.23
2022-12-09T18:18:54.690Z,15.18
2022-12-09T18:21:23.786Z,14.90
2022-12-09T18:23:51.126Z,13.30
2022-12-09T18:26:19.790Z,14.13
2022-12-09T18:28:47.441Z,14.65
2022-12-09T18:31:19.207Z,14.77
2022-12-09T18:33:46.875Z,12.57
2022-12-09T18:36:16.210Z,9.45
2022-12-09T18:38:43.913Z,15.68
2022-12-09T18:41:15.247Z,13.25
2022-12-09T18:43:43.421Z,14.95
2022-12-09T18:46:12.084Z,12.90
2022-12-09T18:48:40.002Z,10.02
2022-12-09T18:51:11.803Z,12.85
2022-12-09T18:53:39.024Z,11.38
2022-12-09T18:56:06.475Z,10.65
2022-12-09T18:58:57.863Z,12.13
2022-12-09T19:01:25.653Z,13.70
2022-12-09T19:03:54.230Z,12.73
2022-12-09T19:06:21.479Z,11.93
2022-12-09T19:08:53.549Z,13.65
2022-12-09T19:11:26.400Z,12.02
2022-12-09T19:13:54.065Z,11.38
2022-12-09T19:16:21.744Z,12.73
2022-12-09T19:18:49.355Z,13.63
2022-12-09T19:21:17.988Z,13.02
2022-12-09T19:23:45.953Z,13.20
2022-12-09T19:26:14.478Z,12.93
2022-12-09T19:28:46.384Z,12.00
2022-12-09T19:31:18.008Z,14.52
2022-12-09T19:33:45.354Z,13.30
2022-12-09T19:36:12.815Z,13.25
2022-12-09T19:38:40.419Z,11.15
2022-12-09T19:41:08.039Z,13.35
2022-12-09T19:43:35.454Z,15.88
2022-12-09T19:46:03.948Z,11.68
2022-12-09T19:48:31.274Z,12.07
2022-12-09T19:51:02.825Z,10.95
2022-12-09T19:53:30.717Z,9.67
2022-12-09T19:56:00.457Z,12.60
2022-12-09T19:58:27.818Z,10.70
2022-12-09T20:00:55.156Z,11.15
2022-12-09T20:03:22.458Z,11.45
2022-12-09T20:05:54.119Z,12.52
2022-12-09T20:08:21.536Z,13.13
2022-12-09T20:10:49.128Z,10.82
2022-12-09T20:13:16.601Z,11.95
2022-12-09T20:15:43.937Z,10.90
2022-12-09T20:18:11.266Z,9.25
2022-12-09T20:20:38.762Z,9.73
2022-12-09T20:23:06.742Z,9.63
2022-12-09T20:25:34.892Z,11.55
2022-12-09T20:28:02.763Z,10.82
2022-12-09T20:30:32.920Z,10.95
2022-12-09T20:33:00.272Z,10.95
2022-12-09T20:35:28.121Z,10.57
2022-12-09T20:37:55.761Z,12.07
2022-12-09T20:40:23.049Z,9.88
2022-12-09T20:42:50.269Z,9.73
2022-12-09T20:45:17.621Z,8.57
2022-12-09T20:47:44.862Z,10.45
2022-12-09T20:50:12.576Z,7.68
2022-12-09T20:52:40.039Z,9.27
2022-12-09T20:55:07.958Z,9.75
2022-12-09T20:57:35.409Z,9.32
2022-12-09T21:00:02.787Z,11.48
2022-12-09T21:02:31.675Z,10.32
2022-12-09T21:04:58.945Z,9.88
2022-12-09T21:07:26.185Z,9.48
2022-12-09T21:09:53.475Z,9.27
2022-12-09T21:12:20.846Z,7.88
2022-12-09T21:14:48.125Z,8.32
2022-12-09T21:17:15.425Z,7.13
2022-12-09T21:19:42.691Z,8.75
2022-12-09T21:22:09.958Z,9.27
2022-12-09T21:24:37.299Z,7.70
2022-12-09T21:27:04.767Z,6.18
2022-12-09T21:29:32.582Z,8.02
2022-12-09T21:32:00.715Z,7.10
2022-12-09T21:34:28.137Z,7.20
2022-12-09T21:36:55.436Z,7.28
2022-12-09T21:39:22.698Z,7.75
2022-12-09T21:41:49.970Z,6.60
2022-12-09T21:44:18.516Z,6.70
2022-12-09T21:46:46.211Z,7.78
2022-12-09T21:49:13.895Z,6.43
2022-12-09T21:51:41.521Z,6.45
2022-12-09T21:54:08.849Z,6.95
2022-12-09T21:56:36.908Z,6.20
2022-12-09T21:59:05.614Z,6.32
2022-12-09T22:01:34.700Z,6.60
2022-12-09T22:04:02.799Z,6.60
2022-12-09T22:06:30.577Z,6.45
2022-12-09T22:09:02.671Z,6.20
2022-12-09T22:11:31.474Z,6.55
2022-12-09T22:14:01.300Z,5.97
2022-12-09T22:16:30.986Z,5.05
2022-12-09T22:18:59.471Z,5.43
2022-12-09T22:21:28.981Z,4.30
2022-12-09T22:23:57.826Z,4.32
2022-12-09T22:26:25.436Z,4.50
2022-12-09T22:28:53.299Z,3.92
2022-12-09T22:31:25.740Z,4.00
2022-12-09T22:33:55.351Z,3.97
2022-12-09T22:36:23.089Z,4.50
2022-12-09T22:38:50.446Z,4.43
2022-12-09T22:41:20.281Z,5.13
2022-12-09T22:43:49.073Z,5.03
2022-12-09T22:46:17.633Z,2.42
2022-12-09T22:48:45.369Z,3.70
2022-12-09T22:51:14.454Z,3.60
2022-12-09T22:53:42.035Z,4.50
2022-12-09T22:56:09.539Z,2.70
2022-12-09T22:58:36.990Z,3.80
2022-12-09T23:01:09.952Z,3.63
2022-12-09T23:03:37.430Z,3.53
2022-12-09T23:06:04.997Z,3.45
2022-12-09T23:08:32.343Z,2.80
2022-12-09T23:11:08.014Z,3.80
2022-12-09T23:13:40.643Z,3.63
2022-12-09T23:16:09.143Z,3.95
2022-12-09T23:18:36.748Z,3.75
2022-12-09T23:21:05.505Z,4.00
2022-12-09T23:23:33.282Z,4.15
2022-12-09T23:26:07.349Z,4.63
2022-12-09T23:28:42.177Z,3.65
2022-12-09T23:31:11.061Z,3.35
2022-12-09T23:33:39.368Z,2.50
2022-12-09T23:36:11.131Z,2.85
2022-12-09T23:38:38.786Z,1.95
2022-12-09T23:41:06.206Z,1.77
2022-12-09T23:43:34.601Z,1.80
2022-12-09T23:46:02.560Z,1.88
2022-12-09T23:48:30.060Z,1.35
2022-12-09T23:50:57.500Z,0.98
2022-12-09T23:53:24.845Z,0.90
2022-12-09T23:55:52.131Z,1.38
2022-12-09T23:58:19.388Z,1.00
